Detalii statie REFDANCOM [00001D06]

Toti senzorii

Date Temperatura solului [C]Precipitatii [mm]Voltaj baterie [mV]Leaf Wetness [Min]HC Air temperature [C]HC Relative humidity [%]Punctul de roua [C]
medieminmaxsumaultimatimpmedieminmaxmediemediemin
2019-02-21 01:00:00 0 6640 4.42 3.53 5.25 0 0 0
2019-02-21 02:00:00 0 6640 2.48 1.77 3.41 0 0 0
2019-02-21 03:00:00 0 6640 1.39 0.52 2.54 0 0 0
2019-02-21 04:00:00 0 6630 0.97 0.55 1.48 0 0 0
2019-02-21 05:00:00 0 6630 0.24 -0.04 0.52 0 0 0
2019-02-21 06:00:00 0 6630 0.21 -0.03 0.51 0 0 0
2019-02-21 07:00:00 0 6630 0.19 -0.05 0.5 0 0 0
2019-02-21 08:00:00 0 6660 -0.06 -0.33 0.21 0 0 0
2019-02-21 09:00:00 0 6748 1.44 0.19 2.93 0 0 0
2019-02-21 10:00:00 0 6922 5.02 3.12 6.7 0 0 0
2019-02-21 11:00:00 0 7236 7.92 7 8.52 0 0 0
2019-02-21 12:00:00 0 7236 10.05 8.76 11.01 0 0 0
2019-02-21 13:00:00 0 7226 12.41 11.2 13.29 0 0 0
2019-02-21 14:00:00 0 7226 13.53 13.15 14.19 0 0 0
2019-02-21 15:00:00 0 7226 13.8 13.42 14.24 0 0 0
2019-02-21 16:00:00 0 7236 13.58 13.17 13.87 0 0 0
2019-02-21 17:00:00 0 6922 12.86 12.27 13.37 0 0 0
2019-02-21 18:00:00 0 6698 10.53 8.85 12.11 0 0 0
2019-02-21 19:00:00 0 6688 7.48 6.75 8.32 0 0 0
2019-02-21 20:00:00 0 6660 6.47 5.99 6.75 0 0 0
2019-02-21 21:00:00 0 6660 5.16 4.45 6.07 0 0 0
2019-02-21 22:00:00 0 6660 4.69 3.51 5.24 0 0 0
2019-02-21 23:00:00 0 6660 3.76 2.91 4.15 0 0 0
2019-02-22 00:00:00 0 6650 2.91 2.39 3.16 0 0 0
2019-02-22 01:00:00 0 6640 2.09 1.67 2.41 0 0 0
2019-02-22 02:00:00 0 6640 1.89 1.49 2.16 0 0 0
2019-02-22 03:00:00 0 6630 1.17 0.49 1.63 0 0 0
2019-02-22 04:00:00 0 6630 1.01 -0.01 1.6 0 0 0
2019-02-22 05:00:00 0 6630 0.53 -0.48 1.4 0 0 0
2019-02-22 06:00:00 0 6630 0.08 -0.25 0.56 0 0 0
2019-02-22 07:00:00 0 6630 -0.34 -0.74 0.1 0 0 0
2019-02-22 08:00:00 0 6660 -0.27 -0.65 0.54 0 0 0
2019-02-22 09:00:00 0 6738 2.8 1.21 3.81 0 0 0
2019-02-22 10:00:00 0 6874 5.91 4.22 6.78 0 0 0
2019-02-22 11:00:00 0 7040 7.32 6.91 7.69 0 0 0
2019-02-22 12:00:00 0 7206 7.33 6.58 7.84 0 0 0
2019-02-22 13:00:00 0.4 7206 6.14 5.96 6.43 0 0 0
2019-02-22 14:00:00 0.6 7206 6.14 5.98 6.24 0 0 0
2019-02-22 15:00:00 1 7206 6.08 5.88 6.23 0.37 -7.1 0
2019-02-22 16:00:00 0.2 6756 5.81 5.74 5.92 17.15 -18.4 -30.8
2019-02-22 17:00:00 0.4 6708 5.55 5.41 5.7 31.39 -10.2 -12.3
2019-02-22 18:00:00 0.2 6678 5.22 4.9 5.4 35.26 -9 -10.7
2019-02-22 19:00:00 1.2 6650 4.67 4.42 4.89 30.08 -11.5 -13.3
2019-02-22 20:00:00 0 6660 0.4 -0.3 4.48 4.52 0
2019-02-22 21:00:00 0 6650 -0.26 -0.41 -0.16 0 0 0
2019-02-22 22:00:00 0 6640 -1.08 -1.77 -0.63 0 0 0
2019-02-22 23:00:00 0 6630 -2.12 -2.26 -2 0 0 0
2019-02-23 00:00:00 0 6630 -2.56 -2.74 -2.3 0 0 0